createdAt,value
2022-11-01T00:02:11.688Z,18.77
2022-11-01T00:04:40.067Z,12.30
2022-11-01T00:07:07.814Z,10.30
2022-11-01T00:09:35.723Z,18.33
2022-11-01T00:12:03.659Z,13.98
2022-11-01T00:14:31.770Z,17.42
2022-11-01T00:16:59.495Z,17.25
2022-11-01T00:19:27.378Z,10.88
2022-11-01T00:21:57.440Z,9.25
2022-11-01T00:24:25.384Z,19.38
2022-11-01T00:26:53.374Z,20.20
2022-11-01T00:29:21.111Z,16.70
2022-11-01T00:31:48.954Z,14.40
2022-11-01T00:34:17.410Z,16.08
2022-11-01T00:36:45.209Z,21.83
2022-11-01T00:39:16.470Z,24.75
2022-11-01T00:41:44.476Z,21.17
2022-11-01T00:44:12.287Z,16.95
2022-11-01T00:46:40.063Z,26.27
2022-11-01T00:49:07.647Z,14.05
2022-11-01T00:51:35.115Z,16.13
2022-11-01T00:54:02.621Z,15.32
2022-11-01T00:56:30.126Z,21.75
2022-11-01T00:58:57.757Z,14.48
2022-11-01T01:01:25.560Z,14.85
2022-11-01T01:03:53.513Z,12.65
2022-11-01T01:06:21.483Z,17.17
2022-11-01T01:08:49.352Z,19.77
2022-11-01T01:11:17.305Z,15.23
2022-11-01T01:13:45.094Z,15.55
2022-11-01T01:16:13.674Z,22.02
2022-11-01T01:18:41.491Z,19.60
2022-11-01T01:21:09.667Z,11.82
2022-11-01T01:23:40.838Z,15.18
2022-11-01T01:26:09.998Z,11.38
2022-11-01T01:28:43.521Z,22.98
2022-11-01T01:31:13.531Z,11.95
2022-11-01T01:33:41.067Z,12.02
2022-11-01T01:36:08.531Z,16.65
2022-11-01T01:38:36.047Z,20.95
2022-11-01T01:41:22.469Z,23.80
2022-11-01T01:43:50.259Z,14.60
2022-11-01T01:46:17.983Z,11.27
2022-11-01T01:48:48.887Z,11.32
2022-11-01T01:51:19.079Z,20.95
2022-11-01T01:53:50.320Z,18.25
2022-11-01T01:56:29.160Z,18.48
2022-11-01T01:59:14.467Z,14.38
2022-11-01T02:01:42.172Z,18.05
2022-11-01T02:04:19.694Z,14.23
2022-11-01T02:06:48.537Z,16.38
2022-11-01T02:09:16.441Z,11.00
2022-11-01T02:11:43.678Z,11.82
2022-11-01T02:14:11.480Z,20.95
2022-11-01T02:16:47.667Z,13.43
2022-11-01T02:19:51.780Z,13.02
2022-11-01T02:25:36.309Z,12.43
2022-11-01T02:28:23.707Z,13.63
2022-11-01T02:31:08.224Z,11.93
2022-11-01T02:33:43.899Z,9.25
2022-11-01T02:36:38.161Z,3.88
2022-11-01T02:39:21.197Z,5.55
2022-11-01T02:41:56.329Z,4.68
2022-11-01T02:44:29.044Z,0.35
2022-11-01T02:47:01.867Z,1.02
2022-11-01T02:49:37.538Z,2.53
2022-11-01T02:52:07.731Z,2.75
2022-11-01T02:54:48.912Z,3.80
2022-11-01T02:57:24.872Z,2.08
2022-11-01T02:59:52.387Z,2.83
2022-11-01T03:02:41.700Z,2.58
2022-11-01T03:05:19.783Z,5.88
2022-11-01T03:07:52.866Z,1.85
2022-11-01T03:10:21.659Z,3.60
2022-11-01T03:12:59.199Z,5.75
2022-11-01T03:15:31.082Z,2.65
2022-11-01T03:18:08.432Z,4.68
2022-11-01T03:20:54.811Z,5.68
2022-11-01T03:23:38.154Z,9.07
2022-11-01T03:26:12.161Z,10.25
2022-11-01T03:28:53.907Z,12.23
2022-11-01T03:31:25.608Z,17.52
2022-11-01T03:33:56.614Z,13.60
2022-11-01T03:36:29.448Z,9.45
2022-11-01T03:39:04.789Z,17.30
2022-11-01T03:41:37.966Z,15.98
2022-11-01T03:44:05.888Z,8.27
2022-11-01T03:46:33.356Z,12.23
2022-11-01T03:49:00.798Z,14.43
2022-11-01T03:51:28.465Z,16.60
2022-11-01T03:53:56.060Z,20.25
2022-11-01T03:56:23.538Z,20.17
2022-11-01T03:58:51.215Z,15.45
2022-11-01T04:01:19.144Z,15.75
2022-11-01T04:03:46.674Z,15.30
2022-11-01T04:06:14.160Z,15.38
2022-11-01T04:08:42.214Z,26.80
2022-11-01T04:11:09.654Z,17.42
2022-11-01T04:13:37.104Z,15.90
2022-11-01T04:16:23.543Z,18.33
2022-11-01T04:19:09.316Z,16.02
2022-11-01T04:21:36.890Z,18.73
2022-11-01T04:24:04.507Z,17.55
2022-11-01T04:26:31.815Z,16.42
2022-11-01T04:28:59.255Z,16.08
2022-11-01T04:31:34.721Z,24.75
2022-11-01T04:34:03.991Z,18.13
2022-11-01T04:36:31.393Z,11.15
2022-11-01T04:38:59.126Z,15.65
2022-11-01T04:41:28.442Z,17.27
2022-11-01T04:43:57.939Z,18.85
2022-11-01T04:46:25.474Z,13.65
2022-11-01T04:48:52.742Z,10.80
2022-11-01T04:51:19.940Z,14.88
2022-11-01T04:53:47.149Z,11.63
2022-11-01T04:56:14.615Z,19.42
2022-11-01T04:58:46.195Z,23.15
2022-11-01T05:01:15.041Z,20.20
2022-11-01T05:03:43.203Z,21.40
2022-11-01T05:06:10.640Z,25.42
2022-11-01T05:08:37.992Z,15.68
2022-11-01T05:11:05.424Z,17.58
2022-11-01T05:13:32.891Z,18.70
2022-11-01T05:16:18.975Z,19.92
2022-11-01T05:18:47.310Z,18.95
2022-11-01T05:21:14.627Z,13.98
2022-11-01T05:23:41.971Z,15.95
2022-11-01T05:26:09.327Z,22.63
2022-11-01T05:28:37.338Z,15.13
2022-11-01T05:31:04.563Z,14.93
2022-11-01T05:33:31.838Z,16.77
2022-11-01T05:36:01.996Z,23.90
2022-11-01T05:38:29.384Z,23.02
2022-11-01T05:40:56.793Z,21.75
2022-11-01T05:43:24.155Z,20.75
2022-11-01T05:45:51.566Z,24.85
2022-11-01T05:48:18.912Z,21.17
2022-11-01T05:50:47.147Z,16.13
2022-11-01T05:53:14.736Z,20.63
2022-11-01T05:55:42.192Z,24.30
2022-11-01T05:58:09.529Z,15.25
2022-11-01T06:00:36.875Z,22.42
2022-11-01T06:03:05.571Z,23.60
2022-11-01T06:05:34.026Z,28.88
2022-11-01T06:08:02.736Z,19.00
2022-11-01T06:10:30.919Z,20.58
2022-11-01T06:12:58.335Z,19.85
2022-11-01T06:15:25.845Z,21.20
2022-11-01T06:17:58.400Z,12.65
2022-11-01T06:20:29.684Z,18.85
2022-11-01T06:22:57.868Z,22.70
2022-11-01T06:25:26.711Z,18.13
2022-11-01T06:27:54.599Z,27.42
2022-11-01T06:30:25.357Z,25.33
2022-11-01T06:32:52.717Z,24.75
2022-11-01T06:35:21.157Z,27.90
2022-11-01T06:37:48.484Z,26.77
2022-11-01T06:40:15.973Z,28.65
2022-11-01T06:42:46.312Z,25.55
2022-11-01T06:45:16.152Z,21.77
2022-11-01T06:47:47.754Z,19.95
2022-11-01T06:50:15.209Z,29.17
2022-11-01T06:52:42.534Z,22.17
2022-11-01T06:55:10.131Z,17.77
2022-11-01T06:57:37.750Z,13.52
2022-11-01T07:00:06.362Z,14.93
2022-11-01T07:02:33.855Z,20.88
2022-11-01T07:05:03.653Z,27.48
2022-11-01T07:07:30.987Z,26.02
2022-11-01T07:09:58.213Z,21.05
2022-11-01T07:12:25.473Z,15.88
2022-11-01T07:14:52.719Z,26.25
2022-11-01T07:17:20.036Z,32.70
2022-11-01T07:19:47.223Z,26.48
2022-11-01T07:22:14.917Z,21.27
2022-11-01T07:24:42.081Z,30.02
2022-11-01T07:27:09.376Z,19.50
2022-11-01T07:29:36.586Z,36.10
2022-11-01T07:32:03.816Z,23.98
2022-11-01T07:34:30.993Z,22.17
2022-11-01T07:36:58.323Z,26.10
2022-11-01T07:39:25.715Z,30.55
2022-11-01T07:41:54.308Z,25.98
2022-11-01T07:44:21.593Z,21.23
2022-11-01T07:46:48.877Z,25.10
2022-11-01T07:49:16.219Z,11.93
2022-11-01T07:51:45.140Z,17.80
2022-11-01T07:54:12.542Z,29.38
2022-11-01T07:56:39.747Z,18.75
2022-11-01T07:59:08.704Z,28.38
2022-11-01T08:01:36.179Z,26.90
2022-11-01T08:04:03.651Z,24.85
2022-11-01T08:06:30.916Z,31.48
2022-11-01T08:08:58.183Z,17.90
2022-11-01T08:11:25.378Z,18.65
2022-11-01T08:13:52.597Z,17.92
2022-11-01T08:16:20.522Z,23.38
2022-11-01T08:18:48.541Z,30.50
2022-11-01T08:21:18.821Z,34.15
2022-11-01T08:23:46.780Z,24.45
2022-11-01T08:26:14.709Z,21.85
2022-11-01T08:28:42.918Z,28.48
2022-11-01T08:31:10.556Z,23.10
2022-11-01T08:33:37.860Z,27.63
2022-11-01T08:36:05.321Z,20.55
2022-11-01T08:38:32.687Z,30.25
2022-11-01T08:41:00.561Z,34.40
2022-11-01T08:43:28.046Z,23.10
2022-11-01T08:45:57.970Z,25.35
2022-11-01T08:48:25.313Z,21.67
2022-11-01T08:50:52.859Z,27.70
2022-11-01T08:53:20.355Z,19.88
2022-11-01T08:58:15.735Z,19.77
2022-11-01T09:00:44.259Z,22.42
2022-11-01T09:03:11.502Z,16.02
2022-11-01T09:05:39.891Z,18.58
2022-11-01T09:08:07.401Z,11.05
2022-11-01T09:10:34.903Z,20.25
2022-11-01T09:13:02.953Z,13.45
2022-11-01T09:15:30.843Z,12.73
2022-11-01T09:17:58.132Z,19.02
2022-11-01T09:20:26.561Z,16.73
2022-11-01T09:22:53.863Z,22.40
2022-11-01T09:25:21.385Z,16.30
2022-11-01T09:27:48.620Z,30.20
2022-11-01T09:30:15.960Z,27.08
2022-11-01T09:32:43.188Z,16.25
2022-11-01T09:35:10.702Z,7.22
2022-11-01T09:37:38.040Z,20.05
2022-11-01T09:40:05.939Z,12.90
2022-11-01T09:42:43.865Z,20.90
2022-11-01T09:45:19.212Z,27.83
2022-11-01T09:47:51.244Z,17.20
2022-11-01T09:50:33.770Z,23.05
2022-11-01T09:53:04.562Z,23.05
2022-11-01T09:55:55.295Z,18.88
2022-11-01T09:58:30.769Z,20.60
2022-11-01T10:01:30.115Z,13.85
2022-11-01T10:04:33.368Z,21.70
2022-11-01T10:07:11.706Z,16.48
2022-11-01T10:09:46.886Z,16.92
2022-11-01T10:12:48.015Z,22.02
2022-11-01T10:15:32.453Z,20.95
2022-11-01T10:18:10.329Z,13.65
2022-11-01T10:20:40.402Z,19.98
2022-11-01T10:23:11.575Z,13.50
2022-11-01T10:25:44.122Z,17.00
2022-11-01T10:28:16.163Z,13.32
2022-11-01T10:31:14.955Z,15.07
2022-11-01T10:34:13.886Z,19.65
2022-11-01T10:36:45.174Z,9.63
2022-11-01T10:42:17.580Z,8.00
2022-11-01T10:44:55.200Z,7.45
2022-11-01T10:47:24.913Z,11.45
2022-11-01T10:50:06.672Z,5.50
2022-11-01T10:52:58.969Z,9.18
2022-11-01T10:55:50.878Z,12.10
2022-11-01T10:58:34.011Z,6.03
2022-11-01T11:01:05.703Z,6.82
2022-11-01T11:03:33.305Z,10.13
2022-11-01T11:06:05.118Z,7.60
2022-11-01T11:08:33.341Z,13.45
2022-11-01T11:11:10.382Z,6.38
2022-11-01T11:13:40.935Z,5.25
2022-11-01T11:16:31.143Z,5.47
2022-11-01T11:19:32.036Z,10.35
2022-11-01T11:22:01.515Z,10.57
2022-11-01T11:24:38.194Z,9.70
2022-11-01T11:27:18.206Z,10.55
2022-11-01T11:29:51.346Z,11.75
2022-11-01T11:32:27.863Z,6.90
2022-11-01T11:34:58.570Z,17.75
2022-11-01T11:37:30.149Z,10.23
2022-11-01T11:40:24.495Z,11.65
2022-11-01T11:43:16.462Z,17.90
2022-11-01T11:45:43.857Z,14.63
2022-11-01T11:48:21.998Z,14.50
2022-11-01T11:51:02.796Z,12.80
2022-11-01T11:53:30.766Z,13.25
2022-11-01T11:56:00.209Z,19.75
2022-11-01T11:58:44.567Z,20.60
2022-11-01T12:01:21.503Z,16.25
2022-11-01T12:04:06.759Z,9.18
2022-11-01T12:06:47.148Z,12.07
2022-11-01T12:09:45.077Z,14.05
2022-11-01T12:12:23.263Z,21.85
2022-11-01T12:14:50.960Z,5.28
2022-11-01T12:17:25.699Z,11.85
2022-11-01T12:20:13.105Z,6.97
2022-11-01T12:23:10.750Z,10.25
2022-11-01T12:25:40.219Z,10.13
2022-11-01T12:28:17.421Z,13.90
2022-11-01T12:30:45.836Z,8.27
2022-11-01T12:33:22.694Z,14.60
2022-11-01T12:35:56.961Z,17.33
2022-11-01T12:38:50.026Z,16.65
2022-11-01T12:41:29.262Z,13.27
2022-11-01T12:44:16.783Z,17.23
2022-11-01T12:47:09.395Z,15.32
2022-11-01T12:50:07.296Z,19.98
2022-11-01T12:52:51.237Z,14.63
2022-11-01T12:55:34.096Z,17.70
2022-11-01T12:58:03.552Z,15.45
2022-11-01T13:00:41.618Z,16.30
2022-11-01T13:03:34.056Z,15.55
2022-11-01T13:06:38.579Z,15.02
2022-11-01T13:09:31.046Z,11.18
2022-11-01T13:12:28.933Z,12.68
2022-11-01T13:15:28.183Z,19.55
2022-11-01T13:18:13.356Z,10.15
2022-11-01T13:20:50.056Z,17.90
2022-11-01T13:23:34.303Z,10.98
2022-11-01T13:26:04.651Z,10.93
2022-11-01T13:28:53.607Z,6.43
2022-11-01T13:31:30.800Z,12.40
2022-11-01T13:34:10.763Z,12.00
2022-11-01T13:36:57.666Z,10.52
2022-11-01T13:39:54.282Z,9.65
2022-11-01T13:42:31.258Z,12.75
2022-11-01T13:45:07.744Z,10.82
2022-11-01T13:47:48.453Z,12.13
2022-11-01T13:50:26.207Z,7.47
2022-11-01T13:53:18.538Z,3.85
2022-11-01T13:55:53.897Z,4.97
2022-11-01T13:58:23.723Z,5.43
2022-11-01T14:00:53.325Z,4.03
2022-11-01T14:03:22.012Z,6.80
2022-11-01T14:06:24.964Z,5.45
2022-11-01T14:09:24.199Z,3.80
2022-11-01T14:11:55.276Z,3.70
2022-11-01T14:14:31.686Z,6.80
2022-11-01T14:17:20.772Z,4.47
2022-11-01T14:19:52.000Z,6.05
2022-11-01T14:22:32.882Z,2.33
2022-11-01T14:25:07.498Z,7.65
2022-11-01T14:30:15.614Z,6.75
2022-11-01T14:32:55.079Z,8.70
2022-11-01T14:35:27.678Z,4.68
2022-11-01T14:38:00.978Z,3.53
2022-11-01T14:40:35.805Z,6.50
2022-11-01T14:43:24.375Z,4.13
2022-11-01T14:45:58.118Z,7.45
2022-11-01T14:48:43.240Z,5.53
2022-11-01T14:51:21.575Z,9.20
2022-11-01T14:53:56.440Z,7.20
2022-11-01T14:56:39.967Z,7.35
2022-11-01T14:59:32.491Z,13.15
2022-11-01T15:02:03.386Z,7.88
2022-11-01T15:04:44.072Z,7.95
2022-11-01T15:07:27.717Z,6.03
2022-11-01T15:10:08.242Z,9.68
2022-11-01T15:12:47.748Z,11.68
2022-11-01T15:15:20.467Z,4.95
2022-11-01T15:18:05.222Z,7.18
2022-11-01T15:20:38.800Z,7.60
2022-11-01T15:23:10.869Z,9.95
2022-11-01T15:25:40.794Z,5.68
2022-11-01T15:28:08.091Z,9.40
2022-11-01T15:30:35.540Z,10.18
2022-11-01T15:33:32.029Z,10.13
2022-11-01T15:36:18.707Z,10.38
2022-11-01T15:38:54.915Z,6.88
2022-11-01T15:41:31.146Z,14.65
2022-11-01T15:44:05.227Z,10.52
2022-11-01T15:46:41.991Z,13.38
2022-11-01T15:49:19.127Z,11.85
2022-11-01T15:51:52.884Z,20.65
2022-11-01T15:54:45.345Z,19.20
2022-11-01T15:57:26.267Z,11.95
2022-11-01T15:59:59.984Z,18.70
2022-11-01T16:02:32.541Z,12.23
2022-11-01T16:05:01.032Z,22.83
2022-11-01T16:07:32.196Z,9.45
2022-11-01T16:10:03.775Z,16.40
2022-11-01T16:12:34.104Z,13.50
2022-11-01T16:15:19.114Z,15.05
2022-11-01T16:20:26.061Z,23.08
2022-11-01T16:22:54.202Z,12.68
2022-11-01T16:25:24.162Z,18.30
2022-11-01T16:27:52.978Z,21.05
2022-11-01T16:30:46.154Z,20.67
2022-11-01T16:33:35.765Z,19.75
2022-11-01T16:36:18.293Z,28.65
2022-11-01T16:38:49.661Z,24.25
2022-11-01T16:41:24.887Z,14.43
2022-11-01T16:43:58.270Z,9.45
2022-11-01T16:46:28.354Z,19.67
2022-11-01T16:49:01.687Z,10.63
2022-11-01T16:51:30.356Z,20.55
2022-11-01T16:54:02.832Z,19.38
2022-11-01T16:56:37.861Z,17.42
2022-11-01T16:59:25.097Z,16.42
2022-11-01T17:01:55.840Z,22.90
2022-11-01T17:04:23.968Z,17.08
2022-11-01T17:06:52.408Z,21.90
2022-11-01T17:09:20.986Z,21.02
2022-11-01T17:11:51.602Z,16.98
2022-11-01T17:14:21.426Z,19.27
2022-11-01T17:16:50.632Z,22.33
2022-11-01T17:19:33.147Z,23.00
2022-11-01T17:22:04.563Z,22.90
2022-11-01T17:24:33.457Z,20.55
2022-11-01T17:27:05.242Z,23.25
2022-11-01T17:29:33.260Z,19.10
2022-11-01T17:32:02.322Z,17.90
2022-11-01T17:34:29.669Z,21.25
2022-11-01T17:36:59.678Z,27.60
2022-11-01T17:39:28.902Z,11.23
2022-11-01T17:41:56.911Z,17.10
2022-11-01T17:44:24.177Z,16.58
2022-11-01T17:46:51.557Z,10.25
2022-11-01T17:49:21.660Z,9.77
2022-11-01T17:51:54.239Z,14.45
2022-11-01T17:54:23.120Z,17.05
2022-11-01T17:56:51.411Z,8.48
2022-11-01T17:59:19.097Z,14.90
2022-11-01T18:01:47.308Z,12.23
2022-11-01T18:04:14.889Z,8.38
2022-11-01T18:06:42.638Z,8.82
2022-11-01T18:09:25.577Z,7.95
2022-11-01T18:12:09.924Z,12.73
2022-11-01T18:14:56.318Z,16.75
2022-11-01T18:17:35.870Z,9.75
2022-11-01T18:20:21.231Z,5.82
2022-11-01T18:23:03.755Z,11.18
2022-11-01T18:25:43.394Z,8.98
2022-11-01T18:28:15.878Z,12.98
2022-11-01T18:30:58.248Z,9.25
2022-11-01T18:33:41.678Z,10.27
2022-11-01T18:36:28.557Z,8.15
2022-11-01T18:39:16.767Z,11.63
2022-11-01T18:41:48.363Z,18.33
2022-11-01T18:44:15.655Z,13.90
2022-11-01T18:47:00.519Z,15.40
2022-11-01T18:49:28.885Z,8.10
2022-11-01T18:51:56.207Z,10.55
2022-11-01T18:54:27.026Z,14.75
2022-11-01T18:56:57.533Z,9.00
2022-11-01T18:59:32.222Z,8.05
2022-11-01T19:02:23.454Z,9.60
2022-11-01T19:04:52.886Z,10.52
2022-11-01T19:07:23.051Z,11.65
2022-11-01T19:09:57.488Z,8.07
2022-11-01T19:12:29.964Z,11.32
2022-11-01T19:15:04.529Z,7.57
2022-11-01T19:20:22.858Z,8.15
2022-11-01T19:22:50.248Z,10.40
2022-11-01T19:25:28.559Z,7.90
2022-11-01T19:27:59.407Z,4.30
2022-11-01T19:30:29.843Z,7.15
2022-11-01T19:33:20.741Z,5.32
2022-11-01T19:35:54.002Z,8.73
2022-11-01T19:38:22.460Z,10.02
2022-11-01T19:40:53.655Z,9.40
2022-11-01T19:43:24.320Z,13.02
2022-11-01T19:45:53.715Z,6.00
2022-11-01T19:48:25.261Z,8.20
2022-11-01T19:50:52.616Z,9.25
2022-11-01T19:53:25.404Z,6.45
2022-11-01T19:56:04.098Z,8.02
2022-11-01T19:58:39.020Z,22.73
2022-11-01T20:01:09.394Z,10.77
2022-11-01T20:03:46.571Z,10.80
2022-11-01T20:06:21.022Z,13.32
2022-11-01T20:08:56.783Z,10.27
2022-11-01T20:11:24.261Z,12.52
2022-11-01T20:13:51.643Z,5.25
2022-11-01T20:16:19.071Z,11.25
2022-11-01T20:18:46.742Z,8.43
2022-11-01T20:21:14.063Z,9.65
2022-11-01T20:23:41.593Z,8.23
2022-11-01T20:26:09.104Z,5.50
2022-11-01T20:28:36.549Z,14.82
2022-11-01T20:31:05.431Z,7.97
2022-11-01T20:33:32.879Z,15.07
2022-11-01T20:36:00.314Z,5.95
2022-11-01T20:38:27.700Z,6.82
2022-11-01T20:40:55.307Z,6.93
2022-11-01T20:43:22.900Z,13.70
2022-11-01T20:45:50.627Z,6.75
2022-11-01T20:48:18.466Z,6.32
2022-11-01T20:50:46.262Z,5.32
2022-11-01T20:53:15.034Z,8.38
2022-11-01T20:55:43.166Z,5.00
2022-11-01T20:58:11.603Z,6.35
2022-11-01T21:00:39.966Z,5.18
2022-11-01T21:03:16.260Z,7.57
2022-11-01T21:05:45.730Z,5.75
2022-11-01T21:08:22.828Z,5.75
2022-11-01T21:11:04.719Z,6.95
2022-11-01T21:13:35.684Z,12.90
2022-11-01T21:16:07.327Z,10.00
2022-11-01T21:18:38.603Z,11.50
2022-11-01T21:21:33.494Z,6.20
2022-11-01T21:24:17.251Z,9.23
2022-11-01T21:26:45.614Z,7.82
2022-11-01T21:29:25.442Z,4.82
2022-11-01T21:31:52.853Z,5.38
2022-11-01T21:34:25.151Z,6.03
2022-11-01T21:36:52.723Z,10.63
2022-11-01T21:39:32.970Z,9.32
2022-11-01T21:42:06.984Z,11.75
2022-11-01T21:44:41.776Z,7.18
2022-11-01T21:47:09.081Z,3.90
2022-11-01T21:49:37.206Z,6.82
2022-11-01T21:52:07.035Z,10.80
2022-11-01T21:54:36.942Z,13.50
2022-11-01T21:57:06.822Z,6.90
2022-11-01T21:59:35.056Z,15.45
2022-11-01T22:02:04.282Z,5.80
2022-11-01T22:04:32.699Z,8.18
2022-11-01T22:07:03.087Z,7.30
2022-11-01T22:09:31.307Z,18.52
2022-11-01T22:12:01.585Z,10.90
2022-11-01T22:14:29.362Z,8.15
2022-11-01T22:16:57.078Z,9.48
2022-11-01T22:19:25.142Z,9.10
2022-11-01T22:21:52.843Z,11.00
2022-11-01T22:24:20.453Z,12.25
2022-11-01T22:26:47.855Z,12.98
2022-11-01T22:29:15.329Z,10.40
2022-11-01T22:31:45.403Z,22.45
2022-11-01T22:34:13.147Z,13.63
2022-11-01T22:36:44.070Z,25.55
2022-11-01T22:39:26.077Z,13.73
2022-11-01T22:41:57.661Z,18.30
2022-11-01T22:44:31.769Z,14.57
2022-11-01T22:47:01.843Z,12.15
2022-11-01T22:49:35.427Z,16.40
2022-11-01T22:52:05.883Z,12.13
2022-11-01T22:54:47.692Z,10.38
2022-11-01T22:57:23.608Z,10.90
2022-11-01T22:59:56.402Z,12.98
2022-11-01T23:02:30.832Z,9.82
2022-11-01T23:05:14.335Z,20.02
2022-11-01T23:07:46.771Z,10.23
2022-11-01T23:10:32.504Z,12.35
2022-11-01T23:13:29.659Z,15.02
2022-11-01T23:16:01.970Z,11.80
2022-11-01T23:18:32.477Z,8.93
2022-11-01T23:21:03.089Z,14.27
2022-11-01T23:23:30.512Z,9.98
2022-11-01T23:26:02.322Z,7.45
2022-11-01T23:28:31.037Z,13.88
2022-11-01T23:30:58.418Z,6.90
2022-11-01T23:33:32.817Z,15.02
2022-11-01T23:36:01.113Z,10.68
2022-11-01T23:38:48.823Z,10.60
2022-11-01T23:41:28.326Z,6.65
2022-11-01T23:43:58.126Z,12.48
2022-11-01T23:46:28.823Z,13.48
2022-11-01T23:49:03.476Z,13.13
2022-11-01T23:53:59.379Z,4.32
2022-11-01T23:56:26.900Z,11.75
2022-11-01T23:59:03.983Z,8.80
